createdAt,value
2016-12-31T00:00:12.496Z,17.32
2016-12-31T00:01:12.583Z,17.32
2016-12-31T00:02:11.730Z,17.32
2016-12-31T00:03:09.008Z,17.32
2016-12-31T00:04:18.850Z,17.33
2016-12-31T00:05:12.559Z,17.32
2016-12-31T00:06:13.123Z,17.32
2016-12-31T00:07:13.016Z,17.31
2016-12-31T00:08:11.843Z,17.31
2016-12-31T00:09:12.126Z,17.32
2016-12-31T00:10:12.144Z,17.32
2016-12-31T00:11:13.758Z,17.32
2016-12-31T00:12:12.430Z,17.32
2016-12-31T00:13:12.631Z,17.31
2016-12-31T00:14:12.164Z,16.98
2016-12-31T00:15:12.756Z,16.77
2016-12-31T00:16:12.276Z,16.71
2016-12-31T00:17:13.422Z,16.71
2016-12-31T00:18:12.418Z,16.69
2016-12-31T00:19:14.668Z,16.67
2016-12-31T00:20:11.708Z,16.66
2016-12-31T00:21:11.903Z,16.66
2016-12-31T00:22:12.237Z,16.66
2016-12-31T00:23:11.198Z,16.65
2016-12-31T00:24:12.860Z,17.19
2016-12-31T00:25:11.943Z,17.26
2016-12-31T00:26:11.969Z,16.95
2016-12-31T00:27:12.344Z,16.75
2016-12-31T00:28:12.906Z,16.70
2016-12-31T00:29:14.448Z,16.69
2016-12-31T00:30:12.430Z,16.67
2016-12-31T00:31:12.991Z,16.72
2016-12-31T00:32:12.568Z,16.66
2016-12-31T00:33:12.068Z,16.68
2016-12-31T00:34:13.769Z,16.66
2016-12-31T00:35:11.802Z,16.65
2016-12-31T00:36:11.769Z,16.65
2016-12-31T00:37:12.663Z,16.65
2016-12-31T00:38:12.326Z,16.66
2016-12-31T00:39:12.286Z,16.66
2016-12-31T00:40:12.727Z,16.74
2016-12-31T00:41:12.149Z,17.19
2016-12-31T00:42:12.841Z,17.24
2016-12-31T00:43:10.562Z,17.28
2016-12-31T00:44:12.409Z,17.29
2016-12-31T00:45:13.310Z,17.31
2016-12-31T00:46:12.535Z,17.32
2016-12-31T00:47:11.789Z,17.30
2016-12-31T00:48:11.969Z,17.32
2016-12-31T00:49:11.049Z,17.31
2016-12-31T00:50:12.212Z,16.77
2016-12-31T00:51:12.805Z,16.77
2016-12-31T00:52:13.290Z,16.69
2016-12-31T00:53:12.316Z,16.68
2016-12-31T00:54:13.875Z,16.66
2016-12-31T00:55:12.571Z,16.66
2016-12-31T00:56:12.383Z,16.66
2016-12-31T00:57:13.263Z,16.65
2016-12-31T00:58:12.139Z,16.66
2016-12-31T00:59:12.508Z,16.69
2016-12-31T01:00:13.810Z,16.65
2016-12-31T01:01:12.391Z,16.64
2016-12-31T01:02:15.479Z,16.64
2016-12-31T01:03:13.072Z,16.65
2016-12-31T01:04:13.517Z,16.72
2016-12-31T01:05:13.660Z,16.66
2016-12-31T01:06:12.995Z,16.65
2016-12-31T01:07:12.539Z,16.70
2016-12-31T01:08:13.127Z,16.65
2016-12-31T01:09:14.126Z,16.65
2016-12-31T01:10:12.844Z,16.64
2016-12-31T01:11:11.750Z,16.64
2016-12-31T01:12:12.303Z,16.71
2016-12-31T01:13:12.322Z,16.64
2016-12-31T01:14:12.990Z,16.64
2016-12-31T01:15:16.424Z,16.65
2016-12-31T01:16:13.889Z,16.65
2016-12-31T01:17:13.792Z,16.65
2016-12-31T01:18:14.601Z,16.66
2016-12-31T01:19:12.426Z,16.65
2016-12-31T01:20:12.950Z,16.64
2016-12-31T01:21:12.907Z,16.67
2016-12-31T01:22:12.448Z,16.69
2016-12-31T01:23:12.938Z,16.69
2016-12-31T01:24:12.475Z,16.68
2016-12-31T01:25:14.092Z,16.64
2016-12-31T01:26:12.223Z,16.65
2016-12-31T01:27:12.975Z,16.64
2016-12-31T01:28:12.635Z,16.65
2016-12-31T01:29:12.922Z,16.65
2016-12-31T01:30:12.011Z,16.64
2016-12-31T01:31:13.971Z,16.65
2016-12-31T01:32:11.973Z,16.65
2016-12-31T01:33:12.641Z,16.65
2016-12-31T01:34:12.042Z,16.71
2016-12-31T01:35:13.329Z,16.65
2016-12-31T01:36:13.227Z,16.65
2016-12-31T01:37:12.412Z,16.64
2016-12-31T01:38:12.482Z,16.65
2016-12-31T01:39:13.127Z,16.65
2016-12-31T01:40:12.611Z,16.65
2016-12-31T01:41:13.323Z,16.65
2016-12-31T01:42:13.041Z,16.65
2016-12-31T01:43:13.103Z,16.68
2016-12-31T01:44:10.798Z,16.64
2016-12-31T01:45:12.661Z,16.68
2016-12-31T01:46:12.484Z,16.64
2016-12-31T01:47:10.461Z,16.64
2016-12-31T01:48:13.592Z,16.64
2016-12-31T01:49:12.908Z,16.65
2016-12-31T01:50:12.684Z,16.64
2016-12-31T01:51:18.517Z,16.64
2016-12-31T01:52:13.418Z,16.65
2016-12-31T01:53:12.565Z,16.65
2016-12-31T01:54:14.122Z,16.65
2016-12-31T01:55:10.852Z,16.64
2016-12-31T01:56:13.309Z,16.64
2016-12-31T01:57:13.463Z,16.65
2016-12-31T01:58:13.713Z,16.66
2016-12-31T01:59:19.271Z,16.64
2016-12-31T02:00:12.934Z,16.68
2016-12-31T02:01:11.952Z,16.65
2016-12-31T02:02:12.844Z,16.65
2016-12-31T02:03:12.414Z,16.64
2016-12-31T02:04:12.481Z,16.65
2016-12-31T02:05:13.041Z,16.69
2016-12-31T02:06:12.485Z,16.65
2016-12-31T02:07:12.823Z,16.68
2016-12-31T02:08:12.438Z,16.65
2016-12-31T02:09:18.635Z,16.66
2016-12-31T02:10:12.768Z,16.65
2016-12-31T02:11:12.395Z,16.68
2016-12-31T02:12:11.645Z,17.18
2016-12-31T02:13:12.233Z,16.71
2016-12-31T02:14:12.842Z,16.69
2016-12-31T02:15:13.154Z,16.66
2016-12-31T02:16:12.854Z,16.65
2016-12-31T02:17:12.082Z,16.65
2016-12-31T02:18:09.195Z,16.65
2016-12-31T02:19:13.268Z,16.67
2016-12-31T02:20:11.079Z,16.63
2016-12-31T02:21:12.763Z,16.69
2016-12-31T02:22:13.304Z,16.64
2016-12-31T02:23:13.051Z,16.65
2016-12-31T02:24:13.210Z,16.65
2016-12-31T02:25:13.246Z,16.65
2016-12-31T02:26:12.322Z,16.65
2016-12-31T02:27:12.546Z,16.64
2016-12-31T02:28:12.564Z,16.65
2016-12-31T02:29:11.232Z,16.64
2016-12-31T02:30:13.044Z,16.64
2016-12-31T02:31:12.961Z,16.64
2016-12-31T02:32:12.601Z,16.64
2016-12-31T02:33:12.745Z,16.64
2016-12-31T02:34:12.661Z,16.64
2016-12-31T02:35:12.671Z,16.64
2016-12-31T02:36:12.349Z,16.64
2016-12-31T02:37:12.329Z,16.64
2016-12-31T02:38:12.504Z,16.65
2016-12-31T02:39:12.368Z,16.64
2016-12-31T02:40:12.359Z,16.64
2016-12-31T02:41:13.268Z,16.64
2016-12-31T02:42:12.976Z,16.63
2016-12-31T02:43:13.965Z,16.64
2016-12-31T02:44:12.610Z,16.64
2016-12-31T02:45:11.724Z,16.64
2016-12-31T02:46:12.354Z,16.65
2016-12-31T02:47:13.062Z,16.64
2016-12-31T02:48:12.070Z,16.64
2016-12-31T02:49:12.793Z,16.64
2016-12-31T02:50:12.951Z,16.66
2016-12-31T02:51:11.953Z,16.65
2016-12-31T02:52:12.042Z,16.64
2016-12-31T02:53:12.117Z,16.64
2016-12-31T02:54:12.249Z,16.64
2016-12-31T02:55:13.765Z,16.65
2016-12-31T02:56:11.845Z,16.65
2016-12-31T02:57:11.808Z,16.64
2016-12-31T02:58:11.932Z,16.64
2016-12-31T02:59:12.034Z,16.64
2016-12-31T03:00:13.378Z,16.65
2016-12-31T03:01:13.702Z,16.64
2016-12-31T03:02:11.910Z,16.65
2016-12-31T03:03:12.153Z,16.64
2016-12-31T03:04:13.084Z,16.64
2016-12-31T03:05:12.090Z,16.64
2016-12-31T03:06:11.103Z,16.63
2016-12-31T03:07:14.296Z,16.64
2016-12-31T03:08:12.810Z,16.64
2016-12-31T03:09:12.566Z,16.64
2016-12-31T03:10:13.541Z,16.64
2016-12-31T03:11:13.113Z,16.64
2016-12-31T03:12:10.762Z,16.64
2016-12-31T03:13:11.875Z,16.64
2016-12-31T03:14:12.678Z,16.64
2016-12-31T03:15:13.283Z,16.64
2016-12-31T03:16:13.744Z,16.64
2016-12-31T03:17:11.927Z,16.64
2016-12-31T03:18:12.059Z,16.65
2016-12-31T03:19:12.185Z,16.64
2016-12-31T03:20:12.925Z,16.64
2016-12-31T03:21:10.560Z,16.63
2016-12-31T03:22:11.772Z,17.18
2016-12-31T03:23:11.874Z,17.24
2016-12-31T03:24:11.905Z,17.27
2016-12-31T03:25:13.152Z,17.28
2016-12-31T03:26:13.325Z,17.29
2016-12-31T03:27:13.033Z,16.95
2016-12-31T03:28:12.097Z,16.75
2016-12-31T03:29:12.719Z,16.70
2016-12-31T03:30:12.542Z,16.67
2016-12-31T03:31:13.388Z,16.66
2016-12-31T03:32:12.337Z,16.67
2016-12-31T03:33:14.201Z,16.66
2016-12-31T03:34:12.552Z,16.65
2016-12-31T03:35:12.093Z,16.70
2016-12-31T03:36:12.117Z,16.65
2016-12-31T03:37:12.982Z,16.64
2016-12-31T03:38:12.549Z,16.64
2016-12-31T03:39:13.017Z,16.71
2016-12-31T03:40:10.851Z,16.64
2016-12-31T03:41:12.710Z,16.64
2016-12-31T03:42:09.527Z,16.63
2016-12-31T03:43:12.724Z,16.64
2016-12-31T03:44:12.323Z,16.63
2016-12-31T03:45:12.287Z,16.64
2016-12-31T03:46:11.255Z,16.63
2016-12-31T03:47:12.374Z,17.17
2016-12-31T03:48:12.443Z,17.24
2016-12-31T03:49:12.520Z,17.26
2016-12-31T03:50:12.985Z,17.27
2016-12-31T03:51:12.003Z,17.27
2016-12-31T03:52:12.826Z,17.29
2016-12-31T03:53:12.575Z,17.29
2016-12-31T03:54:11.602Z,16.76
2016-12-31T03:55:12.186Z,16.70
2016-12-31T03:56:12.585Z,16.72
2016-12-31T03:57:12.163Z,16.69
2016-12-31T03:58:12.233Z,16.66
2016-12-31T03:59:12.930Z,16.65
2016-12-31T04:00:12.764Z,16.64
2016-12-31T04:01:11.861Z,16.64
2016-12-31T04:02:12.580Z,16.65
2016-12-31T04:03:13.351Z,16.64
2016-12-31T04:04:12.431Z,16.64
2016-12-31T04:05:13.068Z,16.64
2016-12-31T04:06:13.114Z,16.64
2016-12-31T04:07:12.710Z,16.64
2016-12-31T04:08:09.133Z,16.64
2016-12-31T04:09:12.902Z,16.64
2016-12-31T04:10:12.545Z,16.64
2016-12-31T04:11:12.205Z,16.63
2016-12-31T04:12:13.153Z,16.64
2016-12-31T04:13:12.736Z,16.66
2016-12-31T04:14:11.621Z,16.63
2016-12-31T04:15:10.538Z,16.62
2016-12-31T04:16:12.515Z,16.63
2016-12-31T04:17:13.270Z,16.64
2016-12-31T04:18:12.874Z,16.64
2016-12-31T04:19:13.652Z,16.64
2016-12-31T04:20:12.230Z,16.63
2016-12-31T04:21:10.946Z,16.63
2016-12-31T04:22:12.858Z,16.63
2016-12-31T04:23:12.594Z,16.64
2016-12-31T04:24:12.812Z,16.64
2016-12-31T04:25:11.791Z,16.64
2016-12-31T04:26:12.614Z,16.64
2016-12-31T04:27:11.619Z,16.63
2016-12-31T04:28:13.013Z,16.64
2016-12-31T04:29:12.005Z,16.63
2016-12-31T04:30:13.650Z,16.63
2016-12-31T04:31:09.840Z,16.63
2016-12-31T04:32:12.791Z,16.64
2016-12-31T04:33:11.675Z,16.63
2016-12-31T04:34:12.444Z,16.63
2016-12-31T04:35:13.124Z,16.63
2016-12-31T04:36:12.956Z,16.64
2016-12-31T04:37:09.104Z,16.63
2016-12-31T04:38:10.802Z,16.63
2016-12-31T04:39:12.013Z,16.63
2016-12-31T04:40:12.998Z,16.63
2016-12-31T04:41:12.480Z,16.68
2016-12-31T04:42:13.121Z,16.64
2016-12-31T04:43:12.380Z,16.63
2016-12-31T04:44:12.977Z,16.63
2016-12-31T04:45:11.933Z,16.64
2016-12-31T04:46:12.012Z,16.63
2016-12-31T04:47:12.511Z,16.66
2016-12-31T04:48:13.042Z,16.64
2016-12-31T04:49:12.421Z,16.69
2016-12-31T04:50:12.495Z,16.64
2016-12-31T04:51:14.266Z,16.64
2016-12-31T04:52:15.002Z,16.63
2016-12-31T04:53:12.058Z,16.64
2016-12-31T04:54:12.168Z,16.64
2016-12-31T04:55:12.324Z,16.63
2016-12-31T04:56:12.436Z,16.64
2016-12-31T04:57:11.622Z,16.64
2016-12-31T04:58:12.407Z,16.63
2016-12-31T04:59:13.214Z,16.63
2016-12-31T05:00:13.839Z,16.63
2016-12-31T05:01:13.551Z,16.64
2016-12-31T05:02:12.947Z,16.68
2016-12-31T05:03:12.119Z,16.64
2016-12-31T05:04:12.168Z,16.64
2016-12-31T05:05:14.866Z,16.64
2016-12-31T05:06:12.757Z,16.64
2016-12-31T05:07:12.294Z,16.67
2016-12-31T05:08:12.298Z,16.65
2016-12-31T05:09:12.159Z,16.65
2016-12-31T05:10:10.696Z,16.64
2016-12-31T05:11:12.790Z,17.18
2016-12-31T05:12:12.608Z,17.23
2016-12-31T05:13:12.500Z,16.72
2016-12-31T05:14:12.659Z,16.68
2016-12-31T05:15:11.701Z,16.66
2016-12-31T05:16:10.662Z,16.65
2016-12-31T05:17:12.549Z,16.65
2016-12-31T05:18:13.275Z,16.65
2016-12-31T05:19:12.105Z,16.64
2016-12-31T05:20:11.978Z,16.64
2016-12-31T05:21:12.029Z,16.64
2016-12-31T05:22:12.415Z,16.68
2016-12-31T05:23:12.518Z,16.64
2016-12-31T05:24:12.629Z,16.64
2016-12-31T05:25:17.838Z,16.64
2016-12-31T05:26:13.000Z,16.67
2016-12-31T05:27:12.584Z,16.67
2016-12-31T05:28:09.206Z,16.63
2016-12-31T05:29:11.170Z,16.63
2016-12-31T05:30:13.298Z,16.63
2016-12-31T05:31:12.928Z,16.64
2016-12-31T05:32:12.908Z,16.64
2016-12-31T05:33:12.278Z,16.69
2016-12-31T05:34:13.069Z,16.64
2016-12-31T05:35:12.891Z,16.64
2016-12-31T05:36:09.598Z,16.64
2016-12-31T05:37:12.959Z,16.64
2016-12-31T05:38:12.601Z,16.68
2016-12-31T05:39:12.037Z,16.67
2016-12-31T05:40:12.641Z,16.68
2016-12-31T05:41:11.706Z,16.63
2016-12-31T05:42:12.383Z,16.63
2016-12-31T05:43:12.309Z,16.64
2016-12-31T05:44:12.269Z,16.63
2016-12-31T05:45:12.310Z,16.63
2016-12-31T05:46:13.919Z,16.63
2016-12-31T05:47:11.899Z,16.64
2016-12-31T05:48:13.249Z,16.69
2016-12-31T05:49:12.475Z,16.63
2016-12-31T05:50:13.054Z,16.64
2016-12-31T05:51:10.083Z,16.63
2016-12-31T05:52:12.888Z,16.63
2016-12-31T05:53:11.787Z,16.64
2016-12-31T05:54:11.677Z,16.64
2016-12-31T05:55:12.115Z,16.67
2016-12-31T05:56:12.725Z,16.64
2016-12-31T05:57:13.558Z,16.64
2016-12-31T05:58:12.536Z,16.64
2016-12-31T05:59:13.266Z,16.63
2016-12-31T06:00:13.816Z,16.64
2016-12-31T06:01:12.000Z,16.63
2016-12-31T06:02:12.887Z,16.63
2016-12-31T06:03:11.913Z,16.63
2016-12-31T06:04:13.502Z,16.63
2016-12-31T06:05:12.386Z,16.64
2016-12-31T06:06:12.419Z,16.64
2016-12-31T06:07:12.571Z,16.64
2016-12-31T06:08:13.260Z,16.64
2016-12-31T06:09:13.824Z,16.63
2016-12-31T06:10:10.960Z,16.64
2016-12-31T06:11:13.967Z,16.64
2016-12-31T06:12:12.573Z,16.64
2016-12-31T06:13:12.148Z,16.69
2016-12-31T06:14:11.944Z,16.64
2016-12-31T06:15:11.928Z,16.64
2016-12-31T06:16:12.353Z,16.70
2016-12-31T06:17:12.553Z,16.64
2016-12-31T06:18:13.043Z,16.66
2016-12-31T06:19:12.221Z,16.64
2016-12-31T06:20:13.687Z,16.64
2016-12-31T06:21:10.696Z,16.62
2016-12-31T06:22:12.443Z,17.18
2016-12-31T06:23:12.383Z,17.23
2016-12-31T06:24:12.452Z,17.28
2016-12-31T06:25:13.134Z,16.93
2016-12-31T06:26:10.886Z,16.74
2016-12-31T06:27:12.021Z,16.70
2016-12-31T06:28:12.712Z,16.68
2016-12-31T06:29:11.781Z,16.67
2016-12-31T06:30:12.564Z,16.66
2016-12-31T06:31:11.628Z,16.65
2016-12-31T06:32:12.332Z,16.65
2016-12-31T06:33:13.137Z,16.65
2016-12-31T06:34:12.270Z,16.64
2016-12-31T06:35:12.304Z,16.65
2016-12-31T06:36:12.354Z,16.64
2016-12-31T06:37:12.912Z,16.64
2016-12-31T06:38:13.468Z,16.65
2016-12-31T06:39:10.517Z,16.64
2016-12-31T06:40:10.670Z,16.64
2016-12-31T06:41:10.565Z,17.19
2016-12-31T06:42:12.405Z,17.24
2016-12-31T06:43:12.486Z,17.27
2016-12-31T06:44:14.177Z,17.29
2016-12-31T06:45:12.793Z,16.95
2016-12-31T06:46:11.683Z,16.76
2016-12-31T06:47:12.361Z,16.70
2016-12-31T06:48:12.281Z,16.68
2016-12-31T06:49:12.589Z,16.73
2016-12-31T06:50:11.922Z,16.66
2016-12-31T06:51:12.342Z,16.67
2016-12-31T06:52:13.129Z,16.65
2016-12-31T06:53:12.630Z,16.66
2016-12-31T06:54:12.491Z,16.66
2016-12-31T06:55:13.039Z,16.65
2016-12-31T06:56:12.582Z,16.69
2016-12-31T06:57:12.180Z,16.65
2016-12-31T06:58:10.649Z,16.64
2016-12-31T06:59:11.851Z,17.19
2016-12-31T07:00:12.437Z,17.26
2016-12-31T07:01:12.427Z,17.27
2016-12-31T07:02:14.059Z,17.29
2016-12-31T07:03:12.908Z,17.30
2016-12-31T07:04:10.885Z,17.31
2016-12-31T07:05:12.490Z,16.76
2016-12-31T07:06:15.610Z,16.71
2016-12-31T07:07:12.416Z,16.69
2016-12-31T07:08:12.663Z,16.67
2016-12-31T07:09:12.262Z,16.66
2016-12-31T07:10:13.143Z,16.65
2016-12-31T07:11:12.024Z,16.65
2016-12-31T07:12:12.600Z,16.67
2016-12-31T07:13:12.333Z,16.64
2016-12-31T07:14:12.818Z,16.72
2016-12-31T07:15:12.221Z,16.65
2016-12-31T07:16:12.720Z,16.65
2016-12-31T07:17:13.068Z,16.65
2016-12-31T07:18:12.103Z,16.65
2016-12-31T07:19:13.352Z,16.65
2016-12-31T07:20:12.261Z,16.64
2016-12-31T07:21:13.364Z,16.65
2016-12-31T07:22:12.056Z,16.65
2016-12-31T07:23:12.681Z,16.65
2016-12-31T07:24:12.714Z,16.65
2016-12-31T07:25:12.373Z,16.64
2016-12-31T07:26:12.935Z,16.64
2016-12-31T07:27:13.507Z,16.64
2016-12-31T07:28:16.136Z,16.65
2016-12-31T07:29:13.822Z,16.64
2016-12-31T07:30:12.295Z,16.70
2016-12-31T07:31:12.455Z,16.65
2016-12-31T07:32:12.468Z,16.65
2016-12-31T07:33:14.139Z,16.64
2016-12-31T07:34:12.184Z,16.65
2016-12-31T07:35:13.893Z,16.65
2016-12-31T07:36:11.953Z,16.65
2016-12-31T07:37:13.551Z,16.65
2016-12-31T07:38:11.726Z,16.65
2016-12-31T07:39:09.674Z,16.64
2016-12-31T07:40:12.884Z,16.65
2016-12-31T07:41:12.665Z,16.65
2016-12-31T07:42:12.363Z,16.65
2016-12-31T07:43:12.309Z,16.65
2016-12-31T07:44:12.836Z,16.64
2016-12-31T07:45:12.895Z,16.64
2016-12-31T07:46:12.396Z,16.71
2016-12-31T07:47:12.967Z,16.73
2016-12-31T07:48:13.581Z,16.66
2016-12-31T07:49:12.666Z,16.66
2016-12-31T07:50:10.407Z,16.65
2016-12-31T07:51:12.093Z,16.70
2016-12-31T07:52:11.917Z,16.65
2016-12-31T07:53:12.544Z,16.65
2016-12-31T07:54:12.381Z,16.65
2016-12-31T07:55:12.988Z,16.65
2016-12-31T07:56:11.997Z,16.65
2016-12-31T07:57:13.791Z,16.65
2016-12-31T07:58:12.360Z,16.65
2016-12-31T07:59:18.156Z,16.66
2016-12-31T08:00:12.148Z,16.65
2016-12-31T08:01:12.219Z,16.65
2016-12-31T08:02:13.815Z,15.58
2016-12-31T08:03:11.777Z,13.15
2016-12-31T08:04:11.699Z,11.56
2016-12-31T08:05:11.887Z,10.27
2016-12-31T08:06:12.630Z,9.53
2016-12-31T08:07:12.220Z,8.99
2016-12-31T08:08:12.654Z,10.37
2016-12-31T08:09:11.740Z,8.88
2016-12-31T08:10:11.764Z,8.72
2016-12-31T08:11:11.938Z,8.42
2016-12-31T08:12:12.031Z,8.37
2016-12-31T08:13:10.817Z,8.18
2016-12-31T08:14:12.674Z,7.98
2016-12-31T08:15:11.740Z,8.87
2016-12-31T08:16:11.726Z,9.87
2016-12-31T08:17:10.591Z,10.78
2016-12-31T08:18:12.630Z,11.60
2016-12-31T08:19:11.819Z,11.88
2016-12-31T08:20:11.765Z,12.23
2016-12-31T08:21:12.332Z,12.64
2016-12-31T08:22:12.971Z,13.02
2016-12-31T08:23:12.717Z,13.37
2016-12-31T08:24:12.146Z,13.66
2016-12-31T08:25:12.885Z,13.89
2016-12-31T08:26:13.301Z,14.17
2016-12-31T08:27:12.799Z,14.42
2016-12-31T08:28:13.701Z,14.54
2016-12-31T08:29:11.892Z,14.71
2016-12-31T08:30:12.050Z,14.86
2016-12-31T08:31:12.150Z,15.00
2016-12-31T08:32:13.322Z,15.12
2016-12-31T08:33:12.419Z,15.22
2016-12-31T08:34:13.619Z,15.33
2016-12-31T08:35:11.573Z,15.42
2016-12-31T08:36:11.692Z,15.52
2016-12-31T08:37:11.867Z,15.59
2016-12-31T08:38:11.971Z,15.67
2016-12-31T08:39:12.657Z,15.74
2016-12-31T08:40:11.871Z,15.80
2016-12-31T08:41:12.386Z,15.86
2016-12-31T08:42:12.542Z,15.93
2016-12-31T08:43:11.824Z,15.95
2016-12-31T08:44:11.901Z,15.99
2016-12-31T08:45:11.880Z,16.05
2016-12-31T08:46:12.743Z,16.06
2016-12-31T08:47:17.315Z,16.11
2016-12-31T08:48:12.837Z,16.19
2016-12-31T08:49:11.833Z,16.20
2016-12-31T08:50:11.950Z,16.21
2016-12-31T08:51:12.158Z,16.23
2016-12-31T08:52:13.053Z,16.29
2016-12-31T08:53:12.616Z,16.29
2016-12-31T08:54:13.249Z,16.30
2016-12-31T08:55:12.714Z,16.38
2016-12-31T08:56:10.292Z,16.38
2016-12-31T08:57:11.603Z,16.40
2016-12-31T08:58:11.612Z,16.42
2016-12-31T08:59:12.068Z,16.48
2016-12-31T09:00:12.405Z,16.45
2016-12-31T09:01:12.440Z,16.43
2016-12-31T09:02:12.646Z,16.50
2016-12-31T09:03:12.252Z,16.45
2016-12-31T09:04:12.723Z,16.44
2016-12-31T09:05:12.475Z,16.47
2016-12-31T09:06:13.106Z,16.49
2016-12-31T09:07:12.179Z,16.45
2016-12-31T09:08:12.073Z,16.45
2016-12-31T09:09:11.866Z,16.45
2016-12-31T09:10:12.294Z,16.47
2016-12-31T09:11:12.234Z,16.43
2016-12-31T09:12:13.075Z,16.40
2016-12-31T09:13:12.446Z,16.42
2016-12-31T09:14:12.980Z,16.38
2016-12-31T09:15:11.917Z,16.38
2016-12-31T09:16:12.055Z,16.36
2016-12-31T09:17:12.174Z,16.35
2016-12-31T09:18:12.262Z,16.33
2016-12-31T09:19:10.960Z,16.32
2016-12-31T09:20:10.924Z,16.31
2016-12-31T09:21:12.564Z,16.29
2016-12-31T09:22:12.362Z,16.29
2016-12-31T09:23:13.085Z,16.27
2016-12-31T09:24:13.876Z,16.27
2016-12-31T09:25:12.377Z,16.26
2016-12-31T09:26:12.464Z,16.25
2016-12-31T09:27:12.515Z,16.24
2016-12-31T09:28:12.512Z,16.24
2016-12-31T09:29:12.599Z,16.24
2016-12-31T09:30:12.083Z,16.25
2016-12-31T09:31:13.402Z,16.24
2016-12-31T09:32:12.317Z,16.21
2016-12-31T09:33:11.537Z,16.20
2016-12-31T09:34:12.016Z,16.74
2016-12-31T09:35:12.036Z,16.78
2016-12-31T09:36:11.964Z,16.80
2016-12-31T09:37:13.654Z,16.81
2016-12-31T09:38:12.649Z,16.81
2016-12-31T09:39:13.621Z,16.81
2016-12-31T09:40:12.176Z,16.81
2016-12-31T09:41:12.784Z,16.81
2016-12-31T09:42:10.226Z,16.27
2016-12-31T09:43:10.419Z,16.20
2016-12-31T09:44:11.843Z,16.18
2016-12-31T09:45:12.669Z,16.15
2016-12-31T09:46:09.861Z,16.12
2016-12-31T09:47:09.551Z,16.11
2016-12-31T09:48:13.114Z,16.11
2016-12-31T09:49:12.041Z,16.09
2016-12-31T09:50:12.112Z,16.63
2016-12-31T09:51:13.973Z,16.30
2016-12-31T09:52:12.596Z,16.16
2016-12-31T09:53:13.211Z,16.11
2016-12-31T09:54:12.837Z,16.09
2016-12-31T09:55:12.621Z,16.08
2016-12-31T09:56:11.740Z,16.07
2016-12-31T09:57:12.564Z,16.06
2016-12-31T09:58:11.744Z,16.05
2016-12-31T09:59:12.380Z,16.05
2016-12-31T10:00:12.396Z,16.05
2016-12-31T10:01:12.485Z,16.07
2016-12-31T10:02:12.258Z,16.10
2016-12-31T10:03:12.835Z,16.21
2016-12-31T10:04:11.785Z,16.19
2016-12-31T10:05:12.061Z,16.20
2016-12-31T10:06:12.358Z,16.21
2016-12-31T10:07:12.888Z,16.27
2016-12-31T10:08:11.777Z,16.21
2016-12-31T10:09:11.952Z,16.22
2016-12-31T10:10:11.883Z,16.23
2016-12-31T10:11:11.939Z,16.23
2016-12-31T10:12:11.945Z,16.23
2016-12-31T10:13:13.692Z,16.23
2016-12-31T10:14:12.395Z,16.24
2016-12-31T10:15:12.414Z,16.24
2016-12-31T10:16:10.968Z,16.23
2016-12-31T10:17:14.149Z,16.23
2016-12-31T10:18:13.807Z,16.24
2016-12-31T10:19:12.444Z,16.24
2016-12-31T10:20:12.338Z,16.26
2016-12-31T10:21:11.324Z,16.25
2016-12-31T10:22:13.114Z,16.26
2016-12-31T10:23:12.182Z,16.26
2016-12-31T10:24:12.720Z,16.28
2016-12-31T10:25:12.213Z,16.31
2016-12-31T10:26:13.957Z,16.30
2016-12-31T10:27:12.048Z,16.31
2016-12-31T10:28:13.273Z,16.34
2016-12-31T10:29:10.854Z,16.29
2016-12-31T10:30:12.693Z,16.27
2016-12-31T10:31:10.569Z,16.25
2016-12-31T10:32:11.974Z,16.24
2016-12-31T10:33:11.971Z,16.23
2016-12-31T10:34:11.928Z,16.22
2016-12-31T10:35:12.703Z,16.22
2016-12-31T10:36:12.745Z,16.22
2016-12-31T10:37:12.063Z,16.26
2016-12-31T10:38:12.445Z,16.26
2016-12-31T10:39:12.484Z,16.20
2016-12-31T10:40:13.073Z,16.21
2016-12-31T10:41:12.676Z,16.20
2016-12-31T10:42:10.735Z,16.18
2016-12-31T10:43:12.743Z,16.19
2016-12-31T10:44:08.995Z,16.20
2016-12-31T10:45:12.262Z,16.20
2016-12-31T10:46:12.505Z,16.20
2016-12-31T10:47:14.440Z,16.21
2016-12-31T10:48:12.870Z,16.23
2016-12-31T10:49:13.689Z,16.21
2016-12-31T10:50:13.444Z,16.22
2016-12-31T10:51:12.483Z,16.21
2016-12-31T10:52:11.737Z,16.22
2016-12-31T10:53:12.260Z,16.26
2016-12-31T10:54:12.328Z,16.22
2016-12-31T10:55:12.275Z,16.24
2016-12-31T10:56:10.884Z,16.22
2016-12-31T10:57:12.214Z,16.76
2016-12-31T10:58:12.674Z,16.37
2016-12-31T10:59:12.371Z,16.29
2016-12-31T11:00:12.521Z,16.29
2016-12-31T11:01:11.354Z,16.29
2016-12-31T11:02:12.417Z,16.31
2016-12-31T11:03:13.972Z,16.31
2016-12-31T11:04:12.045Z,16.31
2016-12-31T11:05:12.514Z,16.36
2016-12-31T11:06:12.726Z,16.32
2016-12-31T11:07:12.223Z,16.32
2016-12-31T11:08:12.787Z,16.32
2016-12-31T11:09:12.363Z,16.32
2016-12-31T11:10:12.435Z,16.32
2016-12-31T11:11:11.463Z,16.33
2016-12-31T11:12:12.430Z,16.34
2016-12-31T11:13:13.231Z,16.34
2016-12-31T11:14:12.985Z,16.37
2016-12-31T11:15:12.734Z,16.86
2016-12-31T11:16:12.471Z,16.39
2016-12-31T11:17:11.706Z,16.37
2016-12-31T11:18:12.790Z,16.88
2016-12-31T11:19:10.346Z,16.94
2016-12-31T11:20:12.804Z,16.97
2016-12-31T11:21:12.528Z,16.71
2016-12-31T11:25:12.984Z,16.36
2016-12-31T11:26:11.935Z,16.35
2016-12-31T11:27:10.544Z,16.33
2016-12-31T11:28:11.895Z,16.54
2016-12-31T11:29:13.770Z,16.39
2016-12-31T11:30:12.417Z,16.37
2016-12-31T11:31:13.989Z,16.35
2016-12-31T11:32:13.114Z,16.36
2016-12-31T11:33:14.944Z,16.35
2016-12-31T11:34:13.618Z,16.35
2016-12-31T11:35:13.394Z,16.35
2016-12-31T11:36:12.876Z,16.35
2016-12-31T11:37:13.378Z,16.34
2016-12-31T11:38:13.148Z,16.34
2016-12-31T11:39:13.443Z,16.34
2016-12-31T11:40:13.165Z,16.34
2016-12-31T11:41:12.786Z,16.34
2016-12-31T11:42:13.151Z,16.42
2016-12-31T11:43:12.943Z,16.51
2016-12-31T11:44:13.722Z,16.39
2016-12-31T11:45:11.607Z,16.37
2016-12-31T11:46:12.453Z,16.35
2016-12-31T11:47:13.049Z,16.35
2016-12-31T11:48:12.659Z,16.34
2016-12-31T11:49:12.870Z,16.35
2016-12-31T11:50:12.377Z,16.34
2016-12-31T11:51:14.235Z,16.34
2016-12-31T11:52:13.209Z,16.34
2016-12-31T11:53:13.835Z,16.33
2016-12-31T11:54:12.607Z,16.34
2016-12-31T11:55:12.785Z,16.33
2016-12-31T11:56:13.400Z,16.33
2016-12-31T11:57:13.498Z,16.34
2016-12-31T11:58:12.415Z,16.35
2016-12-31T11:59:12.967Z,16.34
2016-12-31T12:00:12.728Z,16.34
2016-12-31T12:01:12.327Z,16.33
2016-12-31T12:02:12.300Z,16.33
2016-12-31T12:03:13.872Z,16.33
2016-12-31T12:04:13.516Z,16.33
2016-12-31T12:05:14.364Z,16.33
2016-12-31T12:06:14.507Z,16.34
2016-12-31T12:10:12.226Z,16.34
2016-12-31T12:11:12.339Z,16.36
2016-12-31T12:12:11.259Z,16.34
2016-12-31T12:13:12.325Z,16.36
2016-12-31T12:14:13.938Z,16.36
2016-12-31T12:15:14.675Z,16.38
2016-12-31T12:16:12.800Z,16.38
2016-12-31T12:17:12.554Z,16.38
2016-12-31T12:18:13.347Z,16.38
2016-12-31T12:19:13.045Z,16.39
2016-12-31T12:20:13.734Z,16.45
2016-12-31T12:21:14.377Z,16.37
2016-12-31T12:22:13.348Z,16.38
2016-12-31T12:23:12.902Z,16.38
2016-12-31T12:24:12.758Z,16.38
2016-12-31T12:25:13.350Z,16.38
2016-12-31T12:26:13.952Z,16.38
2016-12-31T12:27:12.485Z,16.43
2016-12-31T12:28:13.256Z,16.39
2016-12-31T12:29:13.916Z,16.39
2016-12-31T12:30:12.933Z,16.40
2016-12-31T12:31:12.995Z,16.39
2016-12-31T12:32:12.289Z,16.39
2016-12-31T12:33:13.047Z,16.40
2016-12-31T12:34:13.686Z,16.40
2016-12-31T12:35:12.480Z,16.40
2016-12-31T12:36:12.827Z,16.45
2016-12-31T12:37:12.815Z,16.41
2016-12-31T12:38:12.904Z,16.44
2016-12-31T12:42:37.984Z,17.04
2016-12-31T12:43:39.603Z,17.05
2016-12-31T12:44:35.278Z,17.07
2016-12-31T12:45:52.754Z,17.05
2016-12-31T12:46:41.429Z,17.07
2016-12-31T12:47:43.806Z,16.53
2016-12-31T12:48:33.129Z,16.47
2016-12-31T12:50:01.248Z,16.45
2016-12-31T12:50:49.989Z,16.44
2016-12-31T12:51:39.730Z,16.42
2016-12-31T12:52:37.730Z,16.42
2016-12-31T12:53:48.241Z,16.48
2016-12-31T12:54:56.291Z,16.42
2016-12-31T12:55:45.220Z,16.42
2016-12-31T12:56:39.048Z,16.42
2016-12-31T12:57:40.482Z,16.42
2016-12-31T12:58:41.997Z,16.42
2016-12-31T12:59:39.560Z,16.42
2016-12-31T13:00:39.840Z,16.42
2016-12-31T13:01:53.470Z,16.42
2016-12-31T13:02:31.041Z,16.42